createdAt,value
2023-01-06T00:00:15.448Z,2.70
2023-01-06T00:03:11.990Z,3.33
2023-01-06T00:06:09.081Z,1.35
2023-01-06T00:08:58.924Z,2.55
2023-01-06T00:11:45.675Z,2.67
2023-01-06T00:14:31.706Z,2.58
2023-01-06T00:17:18.226Z,2.83
2023-01-06T00:20:05.218Z,2.72
2023-01-06T00:22:51.301Z,2.50
2023-01-06T00:25:37.487Z,2.42
2023-01-06T00:28:23.751Z,2.65
2023-01-06T00:34:45.019Z,2.53
2023-01-06T00:37:32.730Z,2.50
2023-01-06T00:40:22.997Z,2.65
2023-01-06T00:43:09.747Z,3.05
2023-01-06T00:49:08.155Z,2.72
2023-01-06T00:54:40.710Z,2.78
2023-01-06T00:57:27.493Z,2.42
2023-01-06T01:00:14.066Z,2.85
2023-01-06T01:03:01.090Z,3.28
2023-01-06T01:05:47.254Z,2.70
2023-01-06T01:08:33.925Z,2.90
2023-01-06T01:11:38.508Z,2.53
2023-01-06T01:17:31.760Z,2.33
2023-01-06T01:23:45.362Z,2.65
2023-01-06T01:26:35.940Z,2.90
2023-01-06T01:29:44.215Z,2.23
2023-01-06T01:32:30.873Z,2.80
2023-01-06T01:35:17.462Z,2.00
2023-01-06T01:38:04.423Z,2.40
2023-01-06T01:40:51.160Z,3.00
2023-01-06T01:43:47.154Z,2.45
2023-01-06T01:46:38.855Z,2.70
2023-01-06T01:49:27.107Z,2.38
2023-01-06T01:52:13.956Z,2.50
2023-01-06T01:55:00.791Z,2.55
2023-01-06T01:57:54.795Z,2.45
2023-01-06T02:00:43.116Z,2.65
2023-01-06T02:03:29.825Z,2.35
2023-01-06T02:06:21.248Z,2.92
2023-01-06T02:09:28.390Z,2.80
2023-01-06T02:12:15.618Z,2.65
2023-01-06T02:15:02.036Z,2.25
2023-01-06T02:17:51.295Z,2.28
2023-01-06T02:20:46.726Z,2.95
2023-01-06T02:23:51.274Z,2.22
2023-01-06T02:26:56.405Z,2.53
2023-01-06T02:30:01.293Z,2.92
2023-01-06T02:32:54.347Z,2.83
2023-01-06T02:36:01.217Z,2.97
2023-01-06T02:38:58.079Z,2.50
2023-01-06T02:41:49.120Z,2.83
2023-01-06T02:44:50.643Z,2.65
2023-01-06T02:47:46.292Z,3.15
2023-01-06T02:51:02.339Z,2.90
2023-01-06T02:54:22.078Z,3.45
2023-01-06T02:57:20.091Z,2.10
2023-01-06T03:00:17.591Z,2.67
2023-01-06T03:03:09.900Z,2.50
2023-01-06T03:06:00.618Z,2.97
2023-01-06T03:08:49.696Z,2.65
2023-01-06T03:11:37.753Z,2.78
2023-01-06T03:14:27.131Z,2.90
2023-01-06T03:17:13.440Z,2.45
2023-01-06T03:20:03.240Z,2.88
2023-01-06T03:22:51.490Z,3.00
2023-01-06T03:25:39.251Z,2.53
2023-01-06T03:28:28.436Z,2.90
2023-01-06T03:31:21.940Z,2.70
2023-01-06T03:34:26.896Z,2.30
2023-01-06T03:37:32.820Z,2.65
2023-01-06T03:40:25.950Z,2.85
2023-01-06T03:43:22.120Z,2.45
2023-01-06T03:46:21.106Z,2.97
2023-01-06T03:49:10.905Z,2.42
2023-01-06T03:52:38.947Z,2.92
2023-01-06T03:55:31.708Z,2.63
2023-01-06T03:58:20.814Z,3.33
2023-01-06T04:01:09.692Z,1.73
2023-01-06T04:03:57.396Z,2.88
2023-01-06T04:06:47.132Z,2.80
2023-01-06T04:09:34.155Z,2.78
2023-01-06T04:12:52.933Z,3.40
2023-01-06T04:15:44.400Z,2.65
2023-01-06T04:18:33.514Z,2.55
2023-01-06T04:21:20.793Z,2.53
2023-01-06T04:24:07.313Z,2.67
2023-01-06T04:26:56.123Z,2.70
2023-01-06T04:29:49.835Z,2.03
2023-01-06T04:32:39.845Z,3.45
2023-01-06T04:35:28.069Z,2.83
2023-01-06T04:38:14.906Z,3.40
2023-01-06T04:41:01.192Z,3.25
2023-01-06T04:43:47.379Z,2.72
2023-01-06T04:46:33.422Z,2.92
2023-01-06T04:49:19.743Z,3.17
2023-01-06T04:52:07.720Z,2.67
2023-01-06T04:54:55.361Z,4.18
2023-01-06T05:00:44.309Z,3.25
2023-01-06T05:03:31.656Z,3.42
2023-01-06T05:06:18.740Z,3.65
2023-01-06T05:09:09.222Z,3.80
2023-01-06T05:11:55.777Z,3.40
2023-01-06T05:14:43.256Z,2.83
2023-01-06T05:17:29.995Z,3.08
2023-01-06T05:20:16.780Z,3.70
2023-01-06T05:23:03.453Z,3.10
2023-01-06T05:26:16.577Z,3.70
2023-01-06T05:29:41.275Z,3.47
2023-01-06T05:38:45.612Z,2.72
2023-01-06T05:41:31.985Z,3.37
2023-01-06T05:44:20.665Z,3.95
2023-01-06T05:47:09.136Z,3.42
2023-01-06T05:49:56.517Z,4.60
2023-01-06T05:52:44.398Z,4.17
2023-01-06T05:55:31.027Z,4.63
2023-01-06T05:58:17.764Z,3.70
2023-01-06T06:01:05.249Z,4.53
2023-01-06T06:03:52.574Z,5.05
2023-01-06T06:06:39.059Z,4.47
2023-01-06T06:09:25.351Z,5.03
2023-01-06T06:12:11.566Z,4.85
2023-01-06T06:14:57.877Z,4.25
2023-01-06T06:17:44.544Z,4.50
2023-01-06T06:23:53.313Z,4.47
2023-01-06T06:26:39.969Z,4.83
2023-01-06T06:29:26.492Z,4.73
2023-01-06T06:32:12.743Z,4.90
2023-01-06T06:34:59.377Z,4.50
2023-01-06T06:37:45.574Z,4.73
2023-01-06T06:40:32.092Z,4.73
2023-01-06T06:43:20.262Z,4.50
2023-01-06T06:46:07.382Z,4.93
2023-01-06T06:48:53.778Z,4.50
2023-01-06T06:51:40.463Z,4.72
2023-01-06T06:54:27.000Z,4.70
2023-01-06T06:57:13.626Z,5.28
2023-01-06T07:00:00.166Z,5.93
2023-01-06T07:02:50.356Z,5.07
2023-01-06T07:05:36.941Z,5.23
2023-01-06T07:08:23.289Z,5.07
2023-01-06T07:11:09.582Z,8.35
2023-01-06T07:13:56.017Z,6.20
2023-01-06T07:16:42.513Z,7.70
2023-01-06T07:19:29.030Z,6.43
2023-01-06T07:22:15.889Z,7.00
2023-01-06T07:25:02.389Z,5.33
2023-01-06T07:27:48.607Z,5.97
2023-01-06T07:30:35.251Z,6.13
2023-01-06T07:33:22.262Z,4.43
2023-01-06T07:36:08.951Z,5.20
2023-01-06T07:38:55.423Z,6.03
2023-01-06T07:41:41.839Z,6.37
2023-01-06T07:44:31.315Z,6.53
2023-01-06T07:47:17.518Z,8.63
2023-01-06T07:50:04.185Z,10.27
2023-01-06T07:52:50.605Z,11.23
2023-01-06T07:55:36.897Z,15.38
2023-01-06T07:58:26.759Z,10.40
2023-01-06T08:01:13.532Z,8.60
2023-01-06T08:03:59.872Z,7.33
2023-01-06T08:06:46.215Z,7.23
2023-01-06T08:09:32.573Z,7.18
2023-01-06T08:12:19.327Z,4.80
2023-01-06T08:15:05.805Z,6.95
2023-01-06T08:17:57.021Z,6.32
2023-01-06T08:20:43.287Z,7.10
2023-01-06T08:23:30.320Z,6.88
2023-01-06T08:26:17.970Z,6.93
2023-01-06T08:29:04.623Z,5.90
2023-01-06T08:31:56.749Z,5.07
2023-01-06T08:34:45.797Z,4.27
2023-01-06T08:37:32.536Z,5.38
2023-01-06T08:40:19.547Z,4.72
2023-01-06T08:43:06.072Z,4.72
2023-01-06T08:45:52.650Z,4.85
2023-01-06T08:48:39.060Z,6.13
2023-01-06T08:51:25.858Z,5.50
2023-01-06T08:54:12.120Z,5.57
2023-01-06T08:56:58.325Z,4.55
2023-01-06T08:59:44.938Z,5.28
2023-01-06T09:02:31.707Z,5.35
2023-01-06T09:05:18.456Z,5.35
2023-01-06T09:08:05.173Z,5.50
2023-01-06T09:10:52.269Z,6.93
2023-01-06T09:13:38.431Z,8.07
2023-01-06T09:16:25.025Z,7.03
2023-01-06T09:19:11.852Z,8.60
2023-01-06T09:22:00.230Z,8.75
2023-01-06T09:24:47.432Z,7.00
2023-01-06T09:27:33.900Z,7.03
2023-01-06T09:30:20.308Z,7.70
2023-01-06T09:33:06.851Z,8.82
2023-01-06T09:35:53.202Z,8.43
2023-01-06T09:38:39.691Z,8.80
2023-01-06T09:41:32.739Z,8.05
2023-01-06T09:44:25.550Z,9.05
2023-01-06T09:47:14.881Z,7.68
2023-01-06T09:50:15.546Z,7.65
2023-01-06T09:53:05.023Z,7.10
2023-01-06T09:55:58.266Z,6.43
2023-01-06T09:59:09.707Z,5.95
2023-01-06T10:02:00.071Z,6.43
2023-01-06T10:04:46.634Z,6.78
2023-01-06T10:07:45.458Z,6.45
2023-01-06T10:28:52.361Z,5.38
2023-01-06T10:31:41.718Z,6.05
2023-01-06T10:34:29.424Z,5.50
2023-01-06T10:37:20.011Z,5.95
2023-01-06T10:40:12.675Z,6.13
2023-01-06T10:43:03.010Z,6.53
2023-01-06T10:45:50.305Z,6.40
2023-01-06T10:48:37.037Z,6.22
2023-01-06T10:51:26.735Z,7.28
2023-01-06T10:54:15.852Z,6.82
2023-01-06T10:57:07.304Z,6.30
2023-01-06T11:00:10.461Z,5.93
2023-01-06T11:08:48.217Z,6.72
2023-01-06T11:11:34.713Z,8.18
2023-01-06T11:14:24.376Z,7.95
2023-01-06T11:17:14.387Z,7.88
2023-01-06T11:20:27.753Z,7.90
2023-01-06T11:23:24.044Z,7.30
2023-01-06T11:26:10.596Z,7.07
2023-01-06T11:28:56.845Z,8.27
2023-01-06T11:31:48.307Z,8.07
2023-01-06T11:34:34.891Z,7.47
2023-01-06T11:37:36.609Z,6.25
2023-01-06T11:40:25.679Z,6.57
2023-01-06T11:43:32.772Z,6.97
2023-01-06T11:46:22.081Z,6.70
2023-01-06T11:49:11.911Z,6.13
2023-01-06T11:52:16.895Z,6.18
2023-01-06T11:55:09.661Z,5.35
2023-01-06T11:57:59.059Z,5.43
2023-01-06T12:00:53.393Z,8.52
2023-01-06T12:03:41.836Z,7.22
2023-01-06T12:06:34.701Z,10.48
2023-01-06T12:12:08.552Z,12.77
2023-01-06T12:14:55.366Z,15.13
2023-01-06T12:17:49.362Z,12.43
2023-01-06T12:20:41.833Z,11.52
2023-01-06T12:23:40.070Z,14.00
2023-01-06T12:26:26.548Z,14.90
2023-01-06T12:29:21.131Z,12.38
2023-01-06T12:32:18.602Z,7.90
2023-01-06T12:35:06.997Z,6.70
2023-01-06T12:40:56.488Z,6.50
2023-01-06T12:43:44.838Z,5.85
2023-01-06T12:46:35.303Z,6.32
2023-01-06T12:49:55.391Z,7.00
2023-01-06T12:52:52.900Z,6.85
2023-01-06T12:55:59.621Z,6.20
2023-01-06T12:58:49.079Z,6.10
2023-01-06T13:01:54.237Z,5.82
2023-01-06T13:04:59.777Z,4.60
2023-01-06T13:07:46.559Z,3.80
2023-01-06T13:10:44.087Z,4.07
2023-01-06T13:13:48.734Z,4.20
2023-01-06T13:16:38.502Z,4.68
2023-01-06T13:19:40.558Z,4.00
2023-01-06T13:22:45.501Z,5.22
2023-01-06T13:25:50.558Z,4.40
2023-01-06T13:28:40.288Z,4.22
2023-01-06T13:31:27.741Z,5.30
2023-01-06T13:34:19.443Z,4.78
2023-01-06T13:37:24.071Z,5.43
2023-01-06T13:40:13.568Z,4.88
2023-01-06T13:43:19.658Z,4.65
2023-01-06T13:46:07.748Z,4.85
2023-01-06T14:09:56.111Z,5.30
2023-01-06T14:13:02.677Z,4.80
2023-01-06T14:18:58.754Z,4.10
2023-01-06T14:24:36.217Z,5.03
2023-01-06T14:27:41.570Z,5.22
2023-01-06T14:30:33.314Z,5.93
2023-01-06T14:33:23.884Z,5.88
2023-01-06T14:36:17.771Z,5.57
2023-01-06T14:39:05.934Z,6.40
2023-01-06T14:41:56.110Z,5.60
2023-01-06T14:44:47.572Z,5.57
2023-01-06T14:47:45.187Z,6.60
2023-01-06T14:50:46.164Z,6.07
2023-01-06T14:53:37.321Z,6.13
2023-01-06T14:56:25.245Z,5.55
2023-01-06T14:59:16.130Z,5.55
2023-01-06T15:02:03.533Z,5.32
2023-01-06T15:04:57.594Z,5.90
2023-01-06T15:07:56.225Z,6.25
2023-01-06T15:10:43.271Z,5.45
2023-01-06T15:13:31.593Z,5.63
2023-01-06T15:16:18.370Z,5.10
2023-01-06T15:19:08.851Z,5.20
2023-01-06T15:21:55.515Z,5.38
2023-01-06T15:24:43.285Z,5.32
2023-01-06T15:27:32.670Z,5.38
2023-01-06T15:30:20.480Z,5.55
2023-01-06T15:33:06.999Z,5.25
2023-01-06T15:35:53.990Z,6.57
2023-01-06T15:38:41.889Z,6.10
2023-01-06T15:41:33.925Z,6.38
2023-01-06T15:44:27.723Z,6.78
2023-01-06T15:47:13.984Z,6.85
2023-01-06T15:50:02.614Z,5.43
2023-01-06T15:52:53.992Z,6.97
2023-01-06T15:55:43.687Z,6.13
2023-01-06T15:58:32.215Z,5.68
2023-01-06T16:01:20.643Z,7.43
2023-01-06T16:04:07.227Z,6.50
2023-01-06T16:06:53.560Z,8.13
2023-01-06T16:09:39.915Z,6.50
2023-01-06T16:16:02.301Z,8.50
2023-01-06T16:18:48.844Z,9.07
2023-01-06T16:21:35.708Z,9.25
2023-01-06T16:24:23.446Z,8.55
2023-01-06T16:27:09.594Z,10.32
2023-01-06T16:30:11.204Z,8.18
2023-01-06T16:33:00.315Z,7.20
2023-01-06T16:35:46.507Z,8.27
2023-01-06T16:38:32.808Z,7.72
2023-01-06T16:41:19.899Z,8.10
2023-01-06T16:44:06.050Z,8.80
2023-01-06T16:46:52.327Z,6.88
2023-01-06T16:49:38.405Z,6.93
2023-01-06T16:52:26.280Z,8.27
2023-01-06T16:55:13.760Z,8.10
2023-01-06T16:58:00.638Z,7.20
2023-01-06T17:00:51.932Z,6.63
2023-01-06T17:03:38.885Z,7.60
2023-01-06T17:06:28.675Z,6.57
2023-01-06T17:09:18.373Z,6.63
2023-01-06T17:12:09.663Z,6.35
2023-01-06T17:14:55.843Z,7.68
2023-01-06T17:17:42.105Z,6.78
2023-01-06T17:20:29.260Z,8.50
2023-01-06T17:23:15.478Z,5.25
2023-01-06T17:26:03.400Z,5.32
2023-01-06T17:28:50.584Z,4.85
2023-01-06T17:31:40.547Z,4.72
2023-01-06T17:34:31.987Z,5.25
2023-01-06T17:37:25.860Z,4.75
2023-01-06T17:40:16.315Z,5.95
2023-01-06T17:43:04.028Z,5.80
2023-01-06T17:45:50.971Z,5.18
2023-01-06T17:48:37.652Z,5.97
2023-01-06T17:51:24.098Z,6.00
2023-01-06T17:54:36.241Z,5.68
2023-01-06T17:57:22.705Z,4.70
2023-01-06T18:00:16.625Z,5.83
2023-01-06T18:03:03.771Z,5.18
2023-01-06T18:05:50.168Z,5.68
2023-01-06T18:08:38.292Z,6.47
2023-01-06T18:11:26.705Z,6.38
2023-01-06T18:14:18.895Z,6.82
2023-01-06T18:17:34.212Z,7.15
2023-01-06T18:20:20.586Z,5.95
2023-01-06T18:23:17.178Z,6.55
2023-01-06T18:26:07.706Z,6.87
2023-01-06T18:29:03.059Z,7.50
2023-01-06T18:31:51.107Z,7.33
2023-01-06T18:34:40.709Z,7.63
2023-01-06T18:37:28.876Z,5.40
2023-01-06T18:40:19.867Z,6.28
2023-01-06T18:43:20.301Z,5.57
2023-01-06T18:46:15.846Z,5.22
2023-01-06T18:49:02.026Z,5.28
2023-01-06T18:51:48.245Z,5.20
2023-01-06T18:54:35.048Z,6.25
2023-01-06T18:57:32.204Z,5.72
2023-01-06T19:00:31.764Z,6.70
2023-01-06T19:03:24.039Z,5.80
2023-01-06T19:06:10.119Z,5.60
2023-01-06T19:08:56.743Z,7.93
2023-01-06T19:11:43.085Z,6.18
2023-01-06T19:14:30.416Z,5.57
2023-01-06T19:17:20.721Z,5.93
2023-01-06T19:20:37.531Z,6.25
2023-01-06T19:23:24.989Z,7.60
2023-01-06T19:26:29.865Z,6.28
2023-01-06T19:29:17.275Z,6.68
2023-01-06T19:32:06.014Z,5.97
2023-01-06T19:38:38.815Z,7.25
2023-01-06T19:41:33.143Z,5.95
2023-01-06T19:44:19.633Z,5.40
2023-01-06T19:47:26.184Z,5.90
2023-01-06T19:50:23.287Z,7.40
2023-01-06T19:53:24.481Z,6.15
2023-01-06T19:56:18.239Z,7.03
2023-01-06T19:59:10.820Z,6.57
2023-01-06T20:02:04.536Z,6.18
2023-01-06T20:04:51.057Z,7.18
2023-01-06T20:07:37.359Z,5.57
2023-01-06T20:10:23.423Z,7.13
2023-01-06T20:13:09.496Z,7.53
2023-01-06T20:15:55.687Z,6.17
2023-01-06T20:18:41.757Z,6.05
2023-01-06T20:21:28.280Z,6.57
2023-01-06T20:24:14.998Z,5.97
2023-01-06T20:27:00.990Z,5.20
2023-01-06T20:29:47.370Z,7.73
2023-01-06T20:32:33.283Z,7.57
2023-01-06T20:35:20.329Z,6.35
2023-01-06T20:38:06.408Z,7.25
2023-01-06T20:40:52.696Z,6.93
2023-01-06T20:43:39.078Z,6.20
2023-01-06T20:46:25.295Z,7.43
2023-01-06T20:49:13.198Z,6.45
2023-01-06T20:52:32.698Z,5.85
2023-01-06T20:55:18.660Z,6.20
2023-01-06T20:58:04.904Z,6.40
2023-01-06T21:00:51.289Z,7.15
2023-01-06T21:03:37.878Z,6.95
2023-01-06T21:06:24.320Z,6.18
2023-01-06T21:09:10.806Z,6.33
2023-01-06T21:12:00.127Z,5.67
2023-01-06T21:14:46.966Z,6.07
2023-01-06T21:17:33.315Z,6.53
2023-01-06T21:20:19.745Z,5.82
2023-01-06T21:23:06.139Z,5.00
2023-01-06T21:25:52.556Z,6.00
2023-01-06T21:28:39.101Z,5.23
2023-01-06T21:31:25.403Z,4.80
2023-01-06T21:34:11.824Z,4.33
2023-01-06T21:36:58.075Z,5.00
2023-01-06T21:40:21.998Z,5.28
2023-01-06T21:43:08.679Z,5.83
2023-01-06T21:45:55.103Z,5.30
2023-01-06T21:48:43.424Z,5.43
2023-01-06T21:51:29.720Z,4.53
2023-01-06T21:54:16.042Z,5.00
2023-01-06T21:57:02.615Z,4.77
2023-01-06T21:59:48.785Z,5.30
2023-01-06T22:02:35.198Z,4.50
2023-01-06T22:05:21.921Z,4.53
2023-01-06T22:08:08.370Z,5.13
2023-01-06T22:10:55.551Z,5.03
2023-01-06T22:13:42.307Z,5.03
2023-01-06T22:16:28.989Z,4.90
2023-01-06T22:19:16.387Z,4.63
2023-01-06T22:22:03.370Z,5.60
2023-01-06T22:24:51.388Z,6.50
2023-01-06T22:27:37.588Z,6.37
2023-01-06T22:30:24.779Z,4.97
2023-01-06T22:33:11.018Z,6.17
2023-01-06T22:35:58.348Z,4.47
2023-01-06T22:38:44.580Z,5.03
2023-01-06T22:41:31.026Z,4.90
2023-01-06T22:44:17.221Z,5.57
2023-01-06T22:47:04.391Z,5.13
2023-01-06T22:49:51.042Z,5.57
2023-01-06T22:52:37.346Z,5.30
2023-01-06T22:55:23.894Z,5.80
2023-01-06T22:58:10.181Z,6.70
2023-01-06T23:00:56.472Z,7.87
2023-01-06T23:03:42.995Z,6.87
2023-01-06T23:06:29.007Z,5.67
2023-01-06T23:09:15.421Z,5.17
2023-01-06T23:12:02.071Z,6.17
2023-01-06T23:14:48.158Z,5.17
2023-01-06T23:17:34.585Z,6.00
2023-01-06T23:20:21.276Z,5.23
2023-01-06T23:23:07.373Z,4.43
2023-01-06T23:25:53.709Z,4.10
2023-01-06T23:28:40.392Z,4.93
2023-01-06T23:31:28.049Z,4.93
2023-01-06T23:34:18.461Z,5.60
2023-01-06T23:37:04.946Z,5.97
2023-01-06T23:39:53.456Z,5.10
2023-01-06T23:42:48.127Z,4.90
2023-01-06T23:45:34.737Z,5.00
2023-01-06T23:48:20.877Z,3.07
2023-01-06T23:51:07.831Z,4.13
2023-01-06T23:53:54.379Z,5.40
2023-01-06T23:56:40.737Z,5.87
2023-01-06T23:59:26.993Z,4.30
